createdAt,value
2023-03-04T00:00:39.141Z,10.43
2023-03-04T00:03:05.509Z,10.41
2023-03-04T00:05:31.829Z,10.38
2023-03-04T00:07:58.192Z,10.34
2023-03-04T00:10:24.509Z,10.35
2023-03-04T00:12:50.822Z,10.33
2023-03-04T00:15:17.186Z,10.27
2023-03-04T00:17:43.514Z,10.25
2023-03-04T00:20:09.820Z,10.23
2023-03-04T00:22:36.214Z,10.20
2023-03-04T00:25:02.542Z,10.18
2023-03-04T00:27:28.874Z,10.14
2023-03-04T00:29:55.369Z,10.12
2023-03-04T00:32:21.780Z,10.07
2023-03-04T00:34:48.100Z,10.07
2023-03-04T00:37:14.458Z,10.06
2023-03-04T00:39:40.778Z,10.03
2023-03-04T00:42:07.173Z,10.02
2023-03-04T00:44:33.634Z,10.01
2023-03-04T00:47:00.092Z,10.00
2023-03-04T00:49:26.494Z,10.00
2023-03-04T00:51:52.860Z,10.02
2023-03-04T00:54:19.314Z,9.99
2023-03-04T00:56:46.229Z,10.00
2023-03-04T00:59:12.636Z,9.99
2023-03-04T01:01:39.038Z,9.97
2023-03-04T01:04:05.401Z,9.93
2023-03-04T01:06:32.618Z,9.86
2023-03-04T01:08:58.985Z,9.89
2023-03-04T01:11:26.584Z,9.83
2023-03-04T01:13:52.966Z,9.84
2023-03-04T01:16:19.369Z,9.82
2023-03-04T01:18:45.696Z,9.80
2023-03-04T01:21:12.048Z,9.76
2023-03-04T01:23:38.360Z,9.62
2023-03-04T01:26:04.706Z,9.61
2023-03-04T01:28:31.126Z,9.56
2023-03-04T01:30:57.471Z,9.60
2023-03-04T01:33:23.810Z,9.52
2023-03-04T01:35:50.208Z,9.47
2023-03-04T01:38:16.644Z,9.43
2023-03-04T01:40:42.952Z,9.37
2023-03-04T01:43:09.306Z,9.37
2023-03-04T01:45:35.654Z,9.33
2023-03-04T01:48:02.003Z,9.29
2023-03-04T01:50:28.395Z,9.27
2023-03-04T01:52:54.739Z,9.17
2023-03-04T01:55:21.060Z,9.16
2023-03-04T01:57:47.692Z,9.13
2023-03-04T02:00:14.129Z,9.15
2023-03-04T02:02:40.393Z,9.07
2023-03-04T02:05:06.751Z,9.10
2023-03-04T02:07:33.096Z,9.05
2023-03-04T02:10:00.409Z,9.03
2023-03-04T02:12:26.789Z,9.00
2023-03-04T02:14:53.120Z,8.97
2023-03-04T02:17:19.426Z,8.94
2023-03-04T02:19:45.778Z,8.91
2023-03-04T02:22:12.099Z,8.84
2023-03-04T02:24:38.474Z,8.79
2023-03-04T02:27:04.915Z,8.77
2023-03-04T02:29:31.416Z,8.72
2023-03-04T02:31:58.004Z,8.65
2023-03-04T02:34:24.499Z,8.64
2023-03-04T02:36:53.076Z,8.58
2023-03-04T02:39:19.900Z,8.55
2023-03-04T02:41:46.748Z,8.51
2023-03-04T02:44:14.346Z,8.50
2023-03-04T02:46:40.739Z,8.46
2023-03-04T02:49:08.013Z,8.41
2023-03-04T02:51:34.403Z,8.46
2023-03-04T02:54:01.279Z,8.43
2023-03-04T02:56:27.759Z,8.38
2023-03-04T02:58:54.151Z,8.33
2023-03-04T03:01:20.690Z,8.30
2023-03-04T03:03:47.232Z,8.29
2023-03-04T03:06:13.582Z,8.25
2023-03-04T03:08:40.038Z,8.22
2023-03-04T03:11:07.709Z,8.18
2023-03-04T03:13:36.014Z,8.15
2023-03-04T03:16:02.345Z,8.08
2023-03-04T03:18:28.863Z,8.06
2023-03-04T03:20:55.213Z,8.03
2023-03-04T03:23:22.115Z,8.03
2023-03-04T03:25:48.487Z,8.03
2023-03-04T03:28:14.858Z,8.00
2023-03-04T03:30:41.391Z,8.04
2023-03-04T03:33:07.754Z,8.02
2023-03-04T03:35:34.323Z,7.98
2023-03-04T03:38:00.710Z,7.92
2023-03-04T03:40:27.062Z,7.88
2023-03-04T03:42:53.379Z,7.84
2023-03-04T03:45:19.687Z,7.82
2023-03-04T03:47:46.012Z,7.77
2023-03-04T03:50:12.342Z,7.74
2023-03-04T03:52:38.677Z,7.68
2023-03-04T03:55:05.035Z,7.64
2023-03-04T03:57:31.346Z,7.67
2023-03-04T03:59:57.673Z,7.67
2023-03-04T04:02:24.234Z,7.64
2023-03-04T04:04:50.647Z,7.62
2023-03-04T04:07:16.975Z,7.58
2023-03-04T04:09:43.328Z,7.53
2023-03-04T04:12:09.625Z,7.45
2023-03-04T04:14:35.969Z,7.41
2023-03-04T04:17:02.350Z,7.35
2023-03-04T04:19:28.652Z,7.41
2023-03-04T04:21:54.963Z,7.40
2023-03-04T04:24:21.337Z,7.38
2023-03-04T04:26:47.672Z,7.33
2023-03-04T04:29:14.006Z,7.32
2023-03-04T04:31:40.395Z,7.27
2023-03-04T04:34:06.704Z,7.23
2023-03-04T04:36:33.010Z,7.21
2023-03-04T04:38:59.386Z,7.19
2023-03-04T04:41:25.703Z,7.15
2023-03-04T04:43:52.004Z,7.12
2023-03-04T04:46:18.381Z,7.10
2023-03-04T04:48:44.730Z,7.07
2023-03-04T04:51:11.067Z,7.03
2023-03-04T04:53:37.429Z,7.03
2023-03-04T04:56:03.744Z,7.00
2023-03-04T04:58:30.236Z,7.04
2023-03-04T05:00:56.722Z,7.01
2023-03-04T05:03:23.696Z,7.04
2023-03-04T05:05:50.077Z,7.01
2023-03-04T05:08:16.428Z,7.00
2023-03-04T05:10:42.737Z,6.97
2023-03-04T05:13:09.058Z,6.93
2023-03-04T05:15:35.460Z,6.89
2023-03-04T05:18:01.823Z,6.89
2023-03-04T05:20:28.146Z,6.88
2023-03-04T05:22:54.515Z,6.84
2023-03-04T05:25:20.839Z,6.86
2023-03-04T05:27:47.165Z,6.83
2023-03-04T05:30:13.613Z,6.78
2023-03-04T05:32:39.967Z,6.79
2023-03-04T05:35:06.297Z,6.77
2023-03-04T05:37:32.652Z,6.75
2023-03-04T05:39:58.958Z,6.74
2023-03-04T05:42:25.269Z,6.73
2023-03-04T05:44:51.631Z,6.70
2023-03-04T05:47:17.962Z,6.70
2023-03-04T05:49:44.277Z,6.69
2023-03-04T05:52:10.666Z,6.66
2023-03-04T05:54:36.987Z,6.63
2023-03-04T05:57:03.433Z,6.60
2023-03-04T05:59:29.821Z,6.41
2023-03-04T06:01:56.192Z,6.57
2023-03-04T06:04:22.577Z,6.57
2023-03-04T06:06:48.950Z,6.60
2023-03-04T06:09:15.290Z,6.61
2023-03-04T06:11:41.595Z,6.63
2023-03-04T06:14:08.082Z,6.63
2023-03-04T06:16:34.489Z,6.63
2023-03-04T06:19:00.846Z,6.64
2023-03-04T06:21:27.226Z,6.65
2023-03-04T06:23:53.566Z,6.64
2023-03-04T06:26:19.919Z,6.63
2023-03-04T06:28:46.319Z,6.63
2023-03-04T06:31:12.678Z,6.66
2023-03-04T06:33:39.009Z,6.65
2023-03-04T06:36:05.392Z,6.62
2023-03-04T06:38:31.733Z,6.61
2023-03-04T06:40:58.075Z,6.64
2023-03-04T06:43:24.449Z,6.61
2023-03-04T06:45:50.784Z,6.58
2023-03-04T06:48:17.108Z,6.58
2023-03-04T06:50:43.473Z,6.58
2023-03-04T06:53:09.808Z,6.57
2023-03-04T06:55:36.119Z,6.57
2023-03-04T06:58:02.651Z,6.55
2023-03-04T07:00:29.044Z,6.56
2023-03-04T07:02:55.406Z,6.55
2023-03-04T07:05:21.758Z,6.53
2023-03-04T07:07:48.126Z,6.53
2023-03-04T07:10:14.498Z,6.53
2023-03-04T07:12:40.888Z,6.51
2023-03-04T07:15:07.218Z,6.51
2023-03-04T07:17:33.516Z,6.50
2023-03-04T07:19:59.897Z,6.30
2023-03-04T07:22:26.191Z,6.49
2023-03-04T07:24:52.495Z,6.50
2023-03-04T07:27:18.857Z,6.49
2023-03-04T07:29:45.206Z,6.51
2023-03-04T07:32:11.685Z,6.51
2023-03-04T07:34:38.272Z,6.50
2023-03-04T07:37:04.624Z,6.51
2023-03-04T07:39:31.951Z,6.50
2023-03-04T07:41:58.320Z,6.50
2023-03-04T07:44:24.626Z,6.47
2023-03-04T07:46:50.957Z,6.47
2023-03-04T07:49:17.315Z,6.49
2023-03-04T07:51:43.727Z,6.49
2023-03-04T07:54:10.040Z,6.48
2023-03-04T07:56:36.420Z,6.48
2023-03-04T07:59:02.799Z,6.46
2023-03-04T08:01:29.100Z,6.45
2023-03-04T08:03:55.495Z,6.46
2023-03-04T08:06:21.828Z,6.47
2023-03-04T08:08:48.252Z,6.47
2023-03-04T08:11:14.726Z,6.47
2023-03-04T08:13:41.075Z,6.48
2023-03-04T08:16:07.473Z,6.48
2023-03-04T08:18:33.921Z,6.48
2023-03-04T08:21:00.224Z,6.47
2023-03-04T08:23:26.580Z,6.47
2023-03-04T08:25:52.962Z,6.47
2023-03-04T08:28:19.301Z,6.48
2023-03-04T08:30:45.690Z,6.50
2023-03-04T08:33:12.161Z,6.49
2023-03-04T08:35:38.607Z,6.50
2023-03-04T08:38:04.944Z,6.51
2023-03-04T08:40:31.365Z,6.52
2023-03-04T08:42:57.672Z,6.52
2023-03-04T08:45:24.001Z,6.54
2023-03-04T08:47:50.382Z,6.54
2023-03-04T08:50:16.706Z,6.50
2023-03-04T08:52:43.016Z,6.53
2023-03-04T08:55:09.374Z,6.55
2023-03-04T08:57:35.713Z,6.58
2023-03-04T09:00:02.072Z,6.57
2023-03-04T09:02:28.454Z,6.59
2023-03-04T09:04:54.785Z,6.62
2023-03-04T09:07:21.093Z,6.64
2023-03-04T09:09:47.490Z,6.66
2023-03-04T09:12:13.832Z,6.68
2023-03-04T09:14:40.168Z,6.69
2023-03-04T09:17:06.535Z,6.71
2023-03-04T09:19:32.866Z,6.71
2023-03-04T09:21:59.188Z,6.72
2023-03-04T09:24:25.542Z,6.74
2023-03-04T09:26:51.863Z,6.75
2023-03-04T09:29:18.172Z,6.75
2023-03-04T09:31:44.566Z,6.76
2023-03-04T09:34:10.961Z,6.78
2023-03-04T09:36:37.309Z,6.80
2023-03-04T09:39:03.700Z,6.81
2023-03-04T09:41:30.015Z,6.81
2023-03-04T09:43:56.367Z,6.85
2023-03-04T09:46:22.723Z,6.86
2023-03-04T09:48:49.045Z,6.88
2023-03-04T09:51:15.360Z,6.87
2023-03-04T09:53:41.810Z,6.90
2023-03-04T09:56:08.216Z,6.91
2023-03-04T09:58:34.603Z,6.87
2023-03-04T10:01:04.068Z,6.91
2023-03-04T10:03:31.576Z,6.92
2023-03-04T10:05:57.883Z,6.94
2023-03-04T10:08:24.311Z,6.97
2023-03-04T10:10:50.645Z,6.98
2023-03-04T10:13:17.020Z,7.00
2023-03-04T10:15:43.419Z,6.99
2023-03-04T10:18:09.729Z,7.00
2023-03-04T10:20:36.042Z,7.01
2023-03-04T10:23:02.398Z,7.04
2023-03-04T10:25:28.730Z,7.04
2023-03-04T10:27:55.061Z,7.06
2023-03-04T10:30:21.555Z,7.08
2023-03-04T10:32:47.932Z,7.09
2023-03-04T10:35:14.278Z,6.91
2023-03-04T10:37:40.647Z,7.13
2023-03-04T10:40:06.986Z,7.15
2023-03-04T10:42:33.392Z,7.20
2023-03-04T10:44:59.828Z,7.22
2023-03-04T10:47:26.172Z,7.25
2023-03-04T10:49:52.514Z,7.27
2023-03-04T10:52:18.877Z,7.21
2023-03-04T10:54:45.306Z,7.31
2023-03-04T10:57:11.612Z,7.35
2023-03-04T10:59:38.005Z,7.33
2023-03-04T11:02:04.337Z,7.38
2023-03-04T11:04:30.650Z,7.39
2023-03-04T11:06:57.013Z,7.43
2023-03-04T11:09:23.334Z,7.47
2023-03-04T11:11:49.648Z,7.48
2023-03-04T11:14:16.060Z,7.53
2023-03-04T11:16:42.401Z,7.55
2023-03-04T11:19:08.753Z,7.58
2023-03-04T11:21:35.121Z,7.62
2023-03-04T11:24:01.442Z,7.65
2023-03-04T11:26:27.771Z,7.66
2023-03-04T11:28:54.143Z,7.71
2023-03-04T11:31:20.582Z,7.74
2023-03-04T11:33:47.028Z,7.78
2023-03-04T11:36:13.403Z,7.80
2023-03-04T11:38:39.762Z,7.80
2023-03-04T11:41:06.097Z,7.84
2023-03-04T11:43:32.451Z,7.86
2023-03-04T11:45:58.788Z,7.89
2023-03-04T11:48:25.182Z,7.93
2023-03-04T11:50:51.568Z,7.96
2023-03-04T11:53:17.869Z,7.98
2023-03-04T11:55:44.241Z,8.01
2023-03-04T11:58:10.601Z,8.05
2023-03-04T12:00:36.923Z,8.08
2023-03-04T12:03:03.236Z,8.12
2023-03-04T12:05:29.595Z,8.17
2023-03-04T12:07:55.918Z,8.23
2023-03-04T12:10:22.285Z,8.28
2023-03-04T12:12:48.648Z,8.35
2023-03-04T12:15:15.241Z,8.39
2023-03-04T12:17:41.632Z,8.47
2023-03-04T12:20:08.010Z,8.51
2023-03-04T12:22:34.322Z,8.56
2023-03-04T12:25:00.629Z,8.62
2023-03-04T12:27:27.025Z,8.68
2023-03-04T12:29:53.320Z,8.74
2023-03-04T12:32:19.807Z,8.77
2023-03-04T12:34:46.198Z,8.50
2023-03-04T12:37:12.521Z,8.83
2023-03-04T12:39:38.865Z,8.92
2023-03-04T12:42:05.243Z,8.98
2023-03-04T12:44:31.570Z,9.04
2023-03-04T12:46:58.166Z,9.09
2023-03-04T12:49:24.631Z,9.15
2023-03-04T12:51:50.961Z,9.21
2023-03-04T12:54:17.295Z,9.25
2023-03-04T12:56:43.865Z,9.31
2023-03-04T12:59:10.222Z,9.37
2023-03-04T13:01:36.537Z,9.41
2023-03-04T13:04:02.920Z,9.45
2023-03-04T13:06:29.243Z,9.48
2023-03-04T13:08:56.096Z,9.54
2023-03-04T13:11:22.596Z,9.58
2023-03-04T13:13:48.968Z,9.62
2023-03-04T13:16:15.316Z,9.65
2023-03-04T13:18:41.695Z,9.67
2023-03-04T13:21:08.010Z,9.71
2023-03-04T13:23:34.343Z,9.76
2023-03-04T13:26:00.697Z,9.78
2023-03-04T13:28:27.007Z,9.80
2023-03-04T13:30:53.357Z,9.84
2023-03-04T13:33:19.706Z,9.86
2023-03-04T13:35:46.086Z,9.90
2023-03-04T13:38:12.459Z,9.94
2023-03-04T13:40:38.815Z,9.94
2023-03-04T13:43:05.149Z,9.97
2023-03-04T13:45:31.482Z,9.98
2023-03-04T13:47:57.874Z,10.00
2023-03-04T13:50:24.208Z,10.04
2023-03-04T13:52:50.539Z,10.03
2023-03-04T13:55:16.904Z,10.06
2023-03-04T13:57:43.226Z,10.06
2023-03-04T14:00:09.567Z,10.09
2023-03-04T14:02:35.875Z,10.09
2023-03-04T14:05:02.205Z,10.11
2023-03-04T14:07:28.517Z,10.12
2023-03-04T14:09:54.983Z,10.12
2023-03-04T14:12:21.343Z,10.12
2023-03-04T14:14:47.704Z,10.13
2023-03-04T14:17:14.074Z,10.13
2023-03-04T14:19:40.396Z,10.13
2023-03-04T14:22:06.720Z,10.14
2023-03-04T14:24:33.091Z,10.13
2023-03-04T14:26:59.416Z,10.13
2023-03-04T14:29:25.737Z,10.10
2023-03-04T14:31:52.185Z,10.07
2023-03-04T14:34:18.535Z,10.06
2023-03-04T14:36:44.876Z,10.06
2023-03-04T14:39:11.245Z,10.07
2023-03-04T14:41:37.566Z,10.08
2023-03-04T14:44:03.911Z,10.09
2023-03-04T14:46:30.289Z,10.11
2023-03-04T14:48:56.618Z,10.12
2023-03-04T14:51:23.003Z,10.14
2023-03-04T14:53:49.344Z,10.14
2023-03-04T14:56:15.668Z,10.14
2023-03-04T14:58:41.989Z,10.15
2023-03-04T15:01:08.400Z,10.14
2023-03-04T15:03:34.817Z,10.14
2023-03-04T15:06:01.428Z,10.15
2023-03-04T15:08:27.905Z,10.15
2023-03-04T15:10:54.224Z,10.14
2023-03-04T15:13:20.530Z,10.14
2023-03-04T15:15:46.926Z,10.13
2023-03-04T15:18:13.289Z,10.11
2023-03-04T15:20:39.618Z,10.11
2023-03-04T15:23:06.007Z,10.10
2023-03-04T15:25:32.376Z,10.08
2023-03-04T15:28:00.520Z,10.07
2023-03-04T15:30:28.805Z,10.06
2023-03-04T15:32:55.275Z,10.05
2023-03-04T15:35:21.602Z,10.03
2023-03-04T15:37:47.987Z,10.04
2023-03-04T15:40:14.312Z,10.02
2023-03-04T15:42:40.653Z,10.00
2023-03-04T15:45:07.005Z,9.98
2023-03-04T15:47:33.394Z,9.97
2023-03-04T15:49:59.744Z,9.96
2023-03-04T15:52:26.129Z,9.95
2023-03-04T15:54:52.444Z,9.94
2023-03-04T15:57:18.763Z,9.93
2023-03-04T15:59:45.124Z,9.91
2023-03-04T16:02:11.456Z,9.88
2023-03-04T16:04:37.839Z,9.86
2023-03-04T16:07:04.232Z,9.84
2023-03-04T16:09:30.569Z,9.83
2023-03-04T16:11:56.900Z,9.81
2023-03-04T16:14:23.266Z,9.78
2023-03-04T16:16:49.585Z,9.77
2023-03-04T16:19:15.918Z,9.72
2023-03-04T16:21:42.280Z,9.74
2023-03-04T16:24:08.604Z,9.73
2023-03-04T16:26:34.929Z,9.70
2023-03-04T16:29:01.285Z,9.54
2023-03-04T16:31:27.655Z,9.68
2023-03-04T16:33:54.103Z,9.65
2023-03-04T16:36:20.531Z,9.64
2023-03-04T16:38:46.912Z,9.63
2023-03-04T16:41:13.241Z,9.59
2023-03-04T16:43:39.639Z,9.59
2023-03-04T16:46:06.068Z,9.59
2023-03-04T16:48:32.400Z,9.55
2023-03-04T16:50:58.775Z,9.54
2023-03-04T16:53:25.097Z,9.53
2023-03-04T16:55:51.452Z,9.50
2023-03-04T16:58:17.816Z,9.48
2023-03-04T17:00:44.134Z,9.47
2023-03-04T17:03:10.494Z,9.45
2023-03-04T17:05:36.894Z,9.47
2023-03-04T17:08:03.200Z,9.47
2023-03-04T17:10:29.527Z,9.45
2023-03-04T17:12:55.918Z,9.45
2023-03-04T17:15:22.231Z,9.45
2023-03-04T17:17:48.649Z,9.47
2023-03-04T17:20:15.094Z,9.46
2023-03-04T17:22:41.419Z,9.46
2023-03-04T17:25:07.724Z,9.46
2023-03-04T17:27:34.096Z,9.45
2023-03-04T17:30:00.414Z,9.45
2023-03-04T17:32:26.796Z,9.42
2023-03-04T17:34:53.196Z,9.41
2023-03-04T17:37:19.524Z,9.40
2023-03-04T17:39:45.902Z,9.38
2023-03-04T17:42:12.322Z,9.37
2023-03-04T17:44:38.631Z,9.37
2023-03-04T17:47:05.024Z,9.37
2023-03-04T17:49:31.452Z,9.35
2023-03-04T17:51:57.752Z,9.33
2023-03-04T17:54:24.145Z,9.31
2023-03-04T17:56:50.483Z,9.30
2023-03-04T17:59:16.789Z,9.30
2023-03-04T18:01:43.189Z,9.29
2023-03-04T18:04:09.551Z,9.29
2023-03-04T18:06:35.878Z,9.27
2023-03-04T18:09:02.434Z,9.28
2023-03-04T18:11:28.878Z,9.23
2023-03-04T18:13:56.636Z,9.21
2023-03-04T18:16:23.278Z,9.19
2023-03-04T18:18:49.798Z,9.18
2023-03-04T18:21:16.094Z,9.17
2023-03-04T18:23:42.413Z,9.15
2023-03-04T18:26:08.785Z,9.15
2023-03-04T18:28:35.094Z,9.13
2023-03-04T18:31:01.421Z,9.13
2023-03-04T18:33:27.795Z,9.14
2023-03-04T18:35:54.131Z,9.11
2023-03-04T18:38:20.452Z,9.10
2023-03-04T18:40:46.823Z,9.11
2023-03-04T18:43:13.138Z,9.08
2023-03-04T18:45:39.461Z,9.07
2023-03-04T18:48:05.843Z,9.06
2023-03-04T18:50:32.154Z,9.05
2023-03-04T18:52:58.489Z,9.04
2023-03-04T18:55:24.875Z,9.01
2023-03-04T18:57:51.210Z,9.00
2023-03-04T19:00:17.537Z,8.96
2023-03-04T19:02:43.945Z,8.97
2023-03-04T19:05:10.286Z,8.97
2023-03-04T19:07:36.620Z,8.95
2023-03-04T19:10:02.999Z,8.95
2023-03-04T19:12:29.347Z,8.94
2023-03-04T19:14:55.723Z,8.93
2023-03-04T19:17:22.104Z,8.92
2023-03-04T19:19:48.456Z,8.89
2023-03-04T19:22:14.777Z,8.87
2023-03-04T19:24:41.179Z,8.86
2023-03-04T19:27:07.481Z,8.86
2023-03-04T19:29:33.794Z,8.85
2023-03-04T19:32:00.263Z,8.84
2023-03-04T19:34:26.607Z,8.83
2023-03-04T19:36:52.942Z,8.82
2023-03-04T19:39:19.295Z,8.80
2023-03-04T19:41:45.605Z,8.78
2023-03-04T19:44:11.935Z,8.79
2023-03-04T19:46:38.307Z,8.79
2023-03-04T19:49:04.668Z,8.78
2023-03-04T19:51:30.988Z,8.80
2023-03-04T19:53:57.414Z,8.80
2023-03-04T19:56:23.792Z,8.79
2023-03-04T19:58:50.188Z,8.79
2023-03-04T20:01:16.612Z,8.79
2023-03-04T20:03:42.921Z,8.80
2023-03-04T20:06:09.295Z,8.80
2023-03-04T20:08:38.236Z,8.80
2023-03-04T20:11:04.799Z,8.79
2023-03-04T20:13:31.108Z,8.80
2023-03-04T20:15:57.530Z,8.79
2023-03-04T20:18:23.898Z,8.80
2023-03-04T20:20:50.229Z,8.80
2023-03-04T20:23:16.609Z,8.78
2023-03-04T20:25:42.930Z,8.77
2023-03-04T20:28:09.239Z,8.76
2023-03-04T20:30:35.598Z,8.77
2023-03-04T20:33:01.908Z,8.75
2023-03-04T20:35:28.268Z,8.73
2023-03-04T20:37:54.664Z,8.72
2023-03-04T20:40:20.970Z,8.69
2023-03-04T20:42:47.288Z,8.69
2023-03-04T20:45:13.790Z,8.69
2023-03-04T20:47:40.188Z,8.68
2023-03-04T20:50:06.551Z,8.68
2023-03-04T20:52:32.936Z,8.68
2023-03-04T20:54:59.469Z,8.66
2023-03-04T20:57:25.795Z,8.68
2023-03-04T20:59:52.174Z,8.66
2023-03-04T21:02:18.483Z,8.66
2023-03-04T21:04:44.827Z,8.64
2023-03-04T21:07:11.246Z,8.64
2023-03-04T21:09:37.558Z,8.63
2023-03-04T21:12:03.886Z,8.63
2023-03-04T21:14:30.259Z,8.63
2023-03-04T21:16:56.709Z,8.53
2023-03-04T21:19:23.070Z,8.58
2023-03-04T21:21:49.439Z,8.59
2023-03-04T21:24:15.813Z,8.59
2023-03-04T21:26:42.141Z,8.59
2023-03-04T21:29:08.500Z,8.58
2023-03-04T21:31:34.863Z,8.57
2023-03-04T21:34:01.227Z,8.56
2023-03-04T21:36:27.624Z,8.55
2023-03-04T21:38:53.993Z,8.55
2023-03-04T21:41:20.322Z,8.54
2023-03-04T21:43:46.690Z,8.16
2023-03-04T21:46:13.063Z,8.35
2023-03-04T21:48:39.421Z,8.46
2023-03-04T21:51:05.815Z,8.48
2023-03-04T21:53:32.176Z,8.47
2023-03-04T21:55:58.493Z,8.47
2023-03-04T21:58:24.868Z,8.46
2023-03-04T22:00:51.321Z,8.48
2023-03-04T22:03:17.677Z,8.47
2023-03-04T22:05:44.031Z,8.47
2023-03-04T22:08:10.335Z,8.46
2023-03-04T22:10:36.652Z,8.43
2023-03-04T22:13:03.028Z,8.41
2023-03-04T22:15:29.347Z,8.38
2023-03-04T22:17:55.874Z,8.38
2023-03-04T22:20:22.367Z,8.38
2023-03-04T22:22:48.709Z,8.37
2023-03-04T22:25:15.033Z,8.37
2023-03-04T22:27:41.417Z,8.37
2023-03-04T22:30:07.906Z,8.36
2023-03-04T22:32:34.319Z,8.36
2023-03-04T22:35:00.734Z,8.35
2023-03-04T22:37:27.097Z,8.36
2023-03-04T22:39:53.500Z,8.36
2023-03-04T22:42:19.883Z,8.37
2023-03-04T22:44:46.228Z,8.38
2023-03-04T22:47:12.556Z,8.36
2023-03-04T22:49:38.927Z,8.38
2023-03-04T22:52:05.248Z,8.38
2023-03-04T22:54:31.548Z,8.39
2023-03-04T22:56:57.944Z,8.39
2023-03-04T22:59:24.324Z,8.39
2023-03-04T23:01:50.642Z,8.39
2023-03-04T23:04:17.020Z,8.04
2023-03-04T23:06:43.342Z,8.27
2023-03-04T23:09:09.762Z,8.35
2023-03-04T23:11:36.244Z,8.35
2023-03-04T23:14:02.570Z,8.35
2023-03-04T23:16:28.898Z,8.34
2023-03-04T23:18:57.130Z,7.98
2023-03-04T23:21:25.478Z,7.90
2023-03-04T23:23:51.847Z,7.86
2023-03-04T23:26:18.225Z,7.84
2023-03-04T23:28:44.575Z,7.82
2023-03-04T23:31:10.942Z,8.08
2023-03-04T23:33:37.355Z,8.20
2023-03-04T23:36:03.723Z,8.22
2023-03-04T23:38:30.036Z,8.23
2023-03-04T23:40:56.421Z,8.24
2023-03-04T23:43:22.738Z,8.25
2023-03-04T23:45:49.104Z,8.25
2023-03-04T23:48:15.511Z,8.24
2023-03-04T23:50:41.823Z,8.22
2023-03-04T23:53:08.132Z,8.23
2023-03-04T23:55:34.521Z,8.21
2023-03-04T23:58:00.849Z,8.19
